sim
Sign-in with your pilot id or email,
or register
Callsign
Passwort

Schedule Details

Flight Number: DLH2150
Departure: Munich Airport (EDDM) at 18:00
Arrival: Stuttgart Airport (EDDS) at 18:45
Route: Lufthansa Passenger Schedule. Enter filed route here before submitting Pirep.

Weather Information
Getting current METAR information for EDDM 240550Z 00000KT CAVOK 10/09 Q1009 BECMG 26008KT
Getting current METAR information for EDDS 240550Z 25003KT 170V310 9999 FEW023 16/12 Q1008 NOSIG

Schedule Frequency

Route Map